Time;durP1;ratioP1;P1;durP2;ratioP2;P2;SDS_P1;SDS_P2;PMS_P1;PMS_P2;Temp;Humidity;BMP_temperature;BMP_pressure;BME280_temperature;BME280_humidity;BME280_pressure;Samples;Min_cycle;Max_cycle;Signal;HPM_P1;HPM_P2
2023/08/23 00:01:57;;;;;;;;;;;26.70;48.20;;;22.97;88.18;95774.34;5014666;28;19936;-47
2023/08/23 00:04:23;;;;;;;;;;;26.70;48.40;;;22.91;88.34;95776.50;5002073;28;19913;-47
2023/08/23 00:06:49;;;;;;;;;;;26.60;48.50;;;22.84;88.68;95779.75;5009975;28;20372;-47
2023/08/23 00:09:16;;;;;;;;;;;26.60;48.70;;;22.81;88.78;95783.16;5014404;28;19909;-46
2023/08/23 00:11:43;;;;;;;;;;;26.40;48.70;;;22.67;90.05;95771.81;5014983;28;20129;-47
2023/08/23 00:14:09;;;;;;;;;;;26.40;48.80;;;22.59;90.64;95776.22;5011444;28;19913;-48
2023/08/23 00:16:35;;;;;;;;;;;26.30;49.00;;;22.55;91.08;95774.50;5014096;28;19909;-46
2023/08/23 00:19:01;;;;;;;;;;;26.20;49.10;;;22.50;91.35;95782.84;5014685;28;19908;-48
2023/08/23 00:21:30;;;;;;;;;;;26.20;49.30;;;22.46;91.63;95773.81;5007450;28;19910;-44
2023/08/23 00:23:56;;;;;;;;;;;26.10;49.40;;;22.43;90.74;95780.69;5007593;28;20295;-46
2023/08/23 00:26:21;;;;;;;;;;;26.10;49.60;;;22.40;91.34;95793.00;5005656;28;19909;-46
2023/08/23 00:28:47;;;;;;;;;;;26.00;49.70;;;22.38;91.85;95789.84;5013725;28;20401;-45
2023/08/23 00:31:13;;;;;;;;;;;25.90;49.80;;;22.36;92.31;95783.19;5001994;28;19958;-45
2023/08/23 00:33:39;;;;;;;;;;;25.90;49.90;;;22.33;92.46;95791.97;5001462;28;19922;-47
2023/08/23 00:36:04;;;;;;;;;;;25.90;50.00;;;22.26;93.03;95786.31;5008700;28;19916;-45
2023/08/23 00:38:30;;;;;;;;;;;25.80;50.00;;;22.21;93.77;95791.94;5010161;28;20395;-45
2023/08/23 00:40:56;;;;;;;;;;;25.80;50.20;;;22.18;93.70;95790.69;5001417;28;19910;-48
2023/08/23 00:43:22;;;;;;;;;;;25.80;50.30;;;22.15;93.92;95788.59;5007824;28;20016;-45
2023/08/23 00:45:48;;;;;;;;;;;25.70;50.40;;;22.11;94.15;95780.34;5014759;28;19916;-46
2023/08/23 00:48:14;;;;;;;;;;;25.70;50.50;;;22.08;93.61;95783.72;5002932;28;20378;-45
2023/08/23 00:50:41;;;;;;;;;;;25.70;50.60;;;22.04;94.00;95785.53;5006692;28;19909;-46
2023/08/23 00:53:14;;;;;;;;;;;25.60;50.60;;;22.00;94.48;95786.50;4995076;28;19910;-45
2023/08/23 00:55:41;;;;;;;;;;;25.60;50.80;;;21.97;94.22;95781.75;4994836;28;19914;-45
2023/08/23 00:58:08;;;;;;;;;;;25.60;50.90;;;21.93;95.15;95787.03;5003603;28;19909;-46
2023/08/23 01:00:34;;;;;;;;;;;25.50;50.90;;;21.86;96.01;95775.94;4996963;28;19909;-47
2023/08/23 01:03:01;;;;;;;;;;;25.50;51.10;;;21.84;96.09;95775.47;5013686;28;19913;-46
2023/08/23 01:05:56;;;;;;;;;;;25.50;51.20;;;21.73;97.42;95783.22;5001972;28;19916;-45
2023/08/23 01:08:55;;;;;;;;;;;25.40;51.20;;;21.69;97.58;95785.03;5005382;28;20059;-45
2023/08/23 01:11:57;;;;;;;;;;;25.40;51.40;;;21.67;96.80;95788.06;5008145;28;19909;-49
2023/08/23 01:15:04;;;;;;;;;;;25.30;52.10;;;21.62;96.40;95790.16;4997116;28;19923;-47
2023/08/23 01:17:32;;;;;;;;;;;25.30;51.60;;;21.57;97.10;95788.44;5013631;28;20004;-44
2023/08/23 01:19:59;;;;;;;;;;;25.20;51.70;;;21.53;97.32;95786.72;5017386;28;19971;-47
2023/08/23 01:22:32;;;;;;;;;;;25.10;51.80;;;21.47;97.26;95784.22;5009304;28;19909;-47
2023/08/23 01:24:59;;;;;;;;;;;25.10;51.80;;;21.42;97.78;95781.69;5013007;28;19915;-45
2023/08/23 01:27:25;;;;;;;;;;;25.10;52.00;;;21.39;97.78;95785.06;5000843;28;19955;-46
2023/08/23 01:29:51;;;;;;;;;;;25.00;52.10;;;21.35;98.60;95786.84;5005468;28;20020;-45
2023/08/23 01:32:51;;;;;;;;;;;25.00;52.10;;;21.29;100.00;95788.13;5019393;28;19996;-47
2023/08/23 01:35:28;;;;;;;;;;;24.90;52.20;;;21.26;100.00;95778.72;5012168;28;19921;-45
2023/08/23 01:37:57;;;;;;;;;;;24.90;52.30;;;21.23;100.00;95778.59;5005767;28;19915;-48
2023/08/23 01:40:24;;;;;;;;;;;24.80;52.40;;;21.21;100.00;95780.84;5000093;28;19909;-45
2023/08/23 01:42:52;;;;;;;;;;;24.80;52.50;;;21.18;100.00;95784.19;5005717;28;19909;-45
2023/08/23 01:45:17;;;;;;;;;;;24.80;52.70;;;21.13;100.00;95784.41;5010913;28;19909;-48
2023/08/23 01:47:43;;;;;;;;;;;24.70;52.70;;;21.08;100.00;95785.38;5011870;28;19909;-46
2023/08/23 01:50:09;;;;;;;;;;;24.70;52.80;;;21.05;100.00;95786.00;5015301;28;19913;-44
2023/08/23 01:52:35;;;;;;;;;;;24.70;52.90;;;21.00;100.00;95778.88;4998855;28;20340;-46
2023/08/23 01:55:01;;;;;;;;;;;24.70;53.00;;;20.96;100.00;95783.34;5003476;28;19959;-46
2023/08/23 01:57:26;;;;;;;;;;;24.60;53.10;;;20.92;100.00;95785.13;4999344;28;19909;-47
2023/08/23 01:59:52;;;;;;;;;;;24.60;53.20;;;20.88;100.00;95784.19;5001199;28;19913;-46
2023/08/23 02:02:18;;;;;;;;;;;24.50;53.20;;;20.87;100.00;95776.38;5008954;28;20347;-47
2023/08/23 02:04:44;;;;;;;;;;;24.60;53.40;;;20.74;100.00;95773.56;5012134;28;19937;-45
2023/08/23 02:07:09;;;;;;;;;;;24.50;53.50;;;20.79;100.00;95775.31;5014591;28;19917;-47
2023/08/23 02:09:35;;;;;;;;;;;24.50;53.60;;;20.79;100.00;95772.59;5021122;28;19939;-46
2023/08/23 02:12:01;;;;;;;;;;;24.40;53.60;;;20.79;100.00;95767.19;4998800;28;19916;-47
2023/08/23 02:14:26;;;;;;;;;;;24.40;53.80;;;20.79;100.00;95764.50;5003632;28;19913;-45
2023/08/23 02:16:52;;;;;;;;;;;24.40;53.90;;;20.80;100.00;95768.78;4980973;28;19913;-46
2023/08/23 02:19:18;;;;;;;;;;;24.40;54.00;;;20.80;100.00;95760.66;5005955;28;19963;-47
2023/08/23 02:21:44;;;;;;;;;;;24.40;54.00;;;20.76;100.00;95763.22;4999073;28;19924;-47
2023/08/23 02:24:09;;;;;;;;;;;24.40;54.10;;;20.74;100.00;95759.25;5001481;28;20012;-45
2023/08/23 02:26:35;;;;;;;;;;;24.40;54.20;;;20.72;100.00;95765.00;5017593;28;19910;-47
2023/08/23 02:29:02;;;;;;;;;;;24.40;54.20;;;20.71;100.00;95768.00;4992158;28;19952;-45
2023/08/23 02:31:28;;;;;;;;;;;24.30;54.20;;;20.67;100.00;95772.50;5010088;28;19909;-46
2023/08/23 02:33:53;;;;;;;;;;;24.30;54.30;;;20.60;100.00;95780.31;5000756;28;19925;-47
2023/08/23 02:36:19;;;;;;;;;;;24.30;54.30;;;20.52;100.00;95779.22;5004843;28;19920;-49
2023/08/23 02:38:45;;;;;;;;;;;24.30;54.40;;;20.54;100.00;95777.78;5010825;28;19935;-48
2023/08/23 02:41:11;;;;;;;;;;;24.20;54.50;;;20.61;100.00;95776.50;4998260;28;19909;-45
2023/08/23 02:43:36;;;;;;;;;;;24.20;54.60;;;20.60;100.00;95767.59;5007281;28;19963;-48
2023/08/23 02:46:02;;;;;;;;;;;24.20;54.60;;;20.59;100.00;95776.84;5010400;28;19968;-50
2023/08/23 02:48:29;;;;;;;;;;;24.20;54.80;;;20.61;100.00;95771.09;5001106;28;20265;-47
2023/08/23 02:50:55;;;;;;;;;;;24.20;54.80;;;20.61;100.00;95771.09;4997453;28;19931;-45
2023/08/23 02:53:21;;;;;;;;;;;24.20;54.90;;;20.59;100.00;95776.00;5011259;28;19913;-45
2023/08/23 02:55:47;;;;;;;;;;;24.20;55.00;;;20.58;100.00;95769.81;5005781;28;19916;-47
2023/08/23 02:58:13;;;;;;;;;;;24.20;55.00;;;20.56;100.00;95778.28;5000708;28;19913;-46
2023/08/23 03:00:39;;;;;;;;;;;24.20;55.10;;;20.50;100.00;95774.13;5008648;28;19937;-48
2023/08/23 03:03:05;;;;;;;;;;;24.20;55.20;;;20.42;100.00;95772.22;5018084;28;20006;-44
2023/08/23 03:05:31;;;;;;;;;;;24.10;55.20;;;20.39;100.00;95769.38;5006451;28;19909;-47
2023/08/23 03:07:57;;;;;;;;;;;24.10;55.30;;;20.33;100.00;95766.03;5001129;28;19909;-45
2023/08/23 03:10:23;;;;;;;;;;;24.10;55.30;;;20.37;100.00;95767.00;5007344;28;19919;-46
2023/08/23 03:12:48;;;;;;;;;;;24.00;55.40;;;20.38;100.00;95767.78;5010400;28;19921;-47
2023/08/23 03:15:14;;;;;;;;;;;24.00;55.50;;;20.36;100.00;95759.97;5000991;28;19909;-47
2023/08/23 03:17:40;;;;;;;;;;;24.00;55.50;;;20.28;100.00;95761.59;5011313;28;19964;-47
2023/08/23 03:20:07;;;;;;;;;;;24.00;55.60;;;20.18;100.00;95761.97;5004599;28;19909;-46
2023/08/23 03:22:33;;;;;;;;;;;23.90;55.60;;;20.16;100.00;95764.19;5011226;28;19917;-46
2023/08/23 03:24:58;;;;;;;;;;;23.90;55.70;;;20.17;100.00;95763.06;5008658;28;19987;-46
2023/08/23 03:27:26;;;;;;;;;;;23.90;55.80;;;20.15;100.00;95757.19;5001039;28;19921;-48
2023/08/23 03:29:52;;;;;;;;;;;23.90;55.90;;;20.15;100.00;95757.19;5004508;28;19909;-46
2023/08/23 03:32:19;;;;;;;;;;;23.80;55.90;;;20.17;100.00;95754.16;5005608;28;20331;-44
2023/08/23 03:34:45;;;;;;;;;;;23.80;56.00;;;20.15;100.00;95759.91;4997652;28;20294;-45
2023/08/23 03:37:11;;;;;;;;;;;23.80;56.10;;;20.10;100.00;95754.63;5003282;28;19955;-47
2023/08/23 03:39:37;;;;;;;;;;;23.80;56.20;;;20.09;100.00;95750.34;4998244;28;20325;-48
2023/08/23 03:42:04;;;;;;;;;;;23.80;56.20;;;20.08;100.00;95757.66;5000574;28;19913;-45
2023/08/23 03:44:29;;;;;;;;;;;23.80;56.40;;;20.11;100.00;95764.34;5009885;28;19909;-49
2023/08/23 03:46:58;;;;;;;;;;;23.80;56.40;;;20.11;100.00;95762.41;5008988;28;20372;-46
2023/08/23 03:49:24;;;;;;;;;;;23.80;56.50;;;20.13;100.00;95764.81;4995482;28;19955;-47
2023/08/23 03:51:50;;;;;;;;;;;23.70;56.50;;;20.14;100.00;95768.31;5001650;28;19976;-47
2023/08/23 03:54:19;;;;;;;;;;;23.70;57.10;;;20.13;100.00;95767.53;5000555;28;19913;-45
2023/08/23 03:56:45;;;;;;;;;;;23.70;56.60;;;20.13;100.00;95764.03;5015093;28;20319;-44
2023/08/23 03:59:10;;;;;;;;;;;23.80;56.70;;;20.15;100.00;95759.06;4999451;28;19916;-46
2023/08/23 04:01:36;;;;;;;;;;;23.80;56.80;;;20.19;100.00;95763.53;5009468;28;20453;-46
2023/08/23 04:04:02;;;;;;;;;;;23.80;56.80;;;20.22;100.00;95760.19;5001232;28;19913;-47
2023/08/23 04:06:28;;;;;;;;;;;23.80;56.80;;;20.23;100.00;95763.69;5003638;28;19913;-47
2023/08/23 04:08:53;;;;;;;;;;;23.90;56.90;;;20.22;100.00;95759.41;5013530;28;19909;-45
2023/08/23 04:11:19;;;;;;;;;;;23.90;56.90;;;20.22;100.00;95762.88;5003955;28;19968;-48
2023/08/23 04:13:45;;;;;;;;;;;23.90;56.90;;;20.23;100.00;95766.38;5006649;28;19913;-46
2023/08/23 04:16:14;;;;;;;;;;;23.90;56.90;;;20.20;100.00;95769.72;5012315;28;19927;-47
2023/08/23 04:18:40;;;;;;;;;;;23.90;56.90;;;20.19;100.00;95768.16;5009812;28;19913;-45
2023/08/23 04:21:06;;;;;;;;;;;23.80;56.80;;;20.17;100.00;95768.47;5021381;28;19916;-46
2023/08/23 04:23:31;;;;;;;;;;;23.80;56.90;;;20.13;100.00;95762.13;5008364;28;20360;-48
2023/08/23 04:25:57;;;;;;;;;;;23.90;57.00;;;20.10;100.00;95770.88;5012268;28;20004;-44
2023/08/23 04:28:23;;;;;;;;;;;23.80;56.90;;;20.06;100.00;95765.31;5000567;28;19919;-47
2023/08/23 04:30:48;;;;;;;;;;;23.80;56.90;;;20.04;100.00;95764.03;5004861;28;19932;-44
2023/08/23 04:33:15;;;;;;;;;;;23.80;57.00;;;20.01;100.00;95767.38;5012476;28;19960;-45
2023/08/23 04:35:41;;;;;;;;;;;23.80;57.00;;;19.97;100.00;95766.44;5039642;23;19920;-52
2023/08/23 04:38:10;;;;;;;;;;;23.70;57.00;;;19.94;100.00;95769.78;5031888;28;19913;-51
2023/08/23 04:40:36;;;;;;;;;;;23.70;57.00;;;19.92;100.00;95770.09;5034273;28;19909;-50
2023/08/23 04:43:02;;;;;;;;;;;23.70;57.10;;;19.90;100.00;95772.31;5032942;28;20244;-51
2023/08/23 04:45:28;;;;;;;;;;;23.70;57.10;;;19.87;100.00;95770.25;5016645;28;20003;-50
2023/08/23 04:47:54;;;;;;;;;;;23.70;57.20;;;19.84;100.00;95773.59;5014591;28;20417;-47
2023/08/23 04:50:20;;;;;;;;;;;23.60;57.20;;;19.82;100.00;95773.13;5013670;28;20011;-47
2023/08/23 04:52:45;;;;;;;;;;;23.60;57.20;;;19.78;100.00;95770.25;5013966;28;20360;-51
2023/08/23 04:55:12;;;;;;;;;;;23.60;57.90;;;19.77;100.00;95767.88;5013238;28;19916;-49
2023/08/23 04:57:37;;;;;;;;;;;23.60;57.30;;;19.79;100.00;95776.47;5000965;28;20000;-48
2023/08/23 05:00:08;;;;;;;;;;;23.60;57.40;;;19.80;100.00;95775.34;5014494;28;20364;-47
2023/08/23 05:02:34;;;;;;;;;;;23.60;57.40;;;19.81;100.00;95779.66;5007085;28;19909;-47
2023/08/23 05:04:59;;;;;;;;;;;23.60;57.40;;;19.83;100.00;95782.81;5005236;28;19916;-47
2023/08/23 05:07:25;;;;;;;;;;;23.70;57.60;;;19.84;100.00;95787.13;5014945;28;19999;-54
2023/08/23 05:09:51;;;;;;;;;;;23.70;57.60;;;19.86;100.00;95792.97;5013656;28;20358;-47
2023/08/23 05:12:17;;;;;;;;;;;23.70;57.60;;;19.86;100.00;95793.78;5000767;28;20015;-48
2023/08/23 05:14:42;;;;;;;;;;;23.70;57.60;;;19.92;100.00;95796.31;5018244;28;19919;-47
2023/08/23 05:17:08;;;;;;;;;;;23.80;57.60;;;19.99;100.00;95797.41;5010239;28;19915;-47
2023/08/23 05:19:34;;;;;;;;;;;23.80;57.50;;;20.06;100.00;95796.97;5010477;28;19916;-47
2023/08/23 05:21:59;;;;;;;;;;;23.90;57.60;;;20.11;100.00;95799.47;5012818;28;20371;-49
2023/08/23 05:24:25;;;;;;;;;;;23.90;57.60;;;20.14;100.00;95804.25;5004366;28;19909;-47
2023/08/23 05:26:51;;;;;;;;;;;24.00;57.60;;;20.17;100.00;95803.63;5012150;28;19909;-48
2023/08/23 05:29:17;;;;;;;;;;;24.00;57.60;;;20.24;100.00;95806.63;5007756;28;19909;-47
2023/08/23 05:31:42;;;;;;;;;;;24.20;57.60;;;20.37;100.00;95812.16;5009379;28;19936;-47
2023/08/23 05:34:08;;;;;;;;;;;24.20;57.50;;;20.52;100.00;95815.19;5008877;28;19970;-47
2023/08/23 05:36:34;;;;;;;;;;;24.40;57.50;;;20.65;100.00;95802.59;5013629;28;19954;-47
2023/08/23 05:39:04;;;;;;;;;;;24.50;57.50;;;20.80;100.00;95799.34;4993538;28;19944;-47
2023/08/23 05:41:30;;;;;;;;;;;24.70;58.00;;;20.99;100.00;95795.44;5012530;28;19960;-51
2023/08/23 05:43:55;;;;;;;;;;;24.90;57.40;;;21.20;100.00;95799.00;5000376;28;19964;-49
2023/08/23 05:46:21;;;;;;;;;;;25.10;57.20;;;21.43;100.00;95798.75;5011054;28;20337;-47
2023/08/23 05:48:48;;;;;;;;;;;25.40;57.10;;;21.66;100.00;95797.31;5011046;28;20004;-48
2023/08/23 05:51:14;;;;;;;;;;;25.70;57.00;;;21.91;100.00;95798.25;5009853;28;20450;-48
2023/08/23 05:53:40;;;;;;;;;;;25.90;56.80;;;22.18;99.90;95798.81;4999963;28;20294;-47
2023/08/23 05:56:06;;;;;;;;;;;26.20;56.60;;;22.46;98.40;95800.94;5009244;28;19909;-51
2023/08/23 05:58:32;;;;;;;;;;;26.60;56.50;;;22.72;95.80;95804.19;5006828;28;20318;-48
2023/08/23 06:00:57;;;;;;;;;;;26.90;56.30;;;23.03;94.56;95802.88;5005530;28;20260;-49
2023/08/23 06:03:23;;;;;;;;;;;27.20;56.10;;;23.31;91.96;95801.06;4999620;28;20360;-48
2023/08/23 06:05:54;;;;;;;;;;;27.50;55.90;;;23.61;90.13;95811.69;5000021;28;19913;-47
2023/08/23 06:08:21;;;;;;;;;;;27.80;55.60;;;23.91;87.77;95812.22;5005226;28;20353;-49
2023/08/23 06:10:47;;;;;;;;;;;28.20;55.60;;;24.20;85.48;95804.84;5000257;28;19992;-48
2023/08/23 06:13:13;;;;;;;;;;;28.50;55.80;;;24.41;82.94;95812.81;4999541;28;19917;-47
2023/08/23 06:15:39;;;;;;;;;;;28.90;54.90;;;24.72;80.95;95809.38;5011416;28;20445;-50
2023/08/23 06:18:06;;;;;;;;;;;29.20;54.60;;;25.01;78.41;95812.81;4972075;28;24615;-48
2023/08/23 06:20:32;;;;;;;;;;;29.60;54.30;;;25.22;77.07;95810.63;5011407;28;19915;-48
2023/08/23 06:22:58;;;;;;;;;;;29.90;54.00;;;25.32;76.46;95807.41;5011675;28;20008;-49
2023/08/23 06:25:25;;;;;;;;;;;30.20;53.60;;;25.56;75.65;95819.22;5011486;28;20000;-52
2023/08/23 06:27:51;;;;;;;;;;;30.50;53.20;;;25.70;74.69;95811.34;5013110;28;20334;-50
2023/08/23 06:30:16;;;;;;;;;;;30.80;52.90;;;25.87;73.28;95818.38;4999397;28;20005;-48
2023/08/23 06:32:46;;;;;;;;;;;31.00;52.50;;;26.01;72.48;95821.41;5004279;28;19910;-48
2023/08/23 06:35:14;;;;;;;;;;;31.30;52.20;;;26.20;71.45;95819.81;5006242;28;20003;-50
2023/08/23 06:37:41;;;;;;;;;;;31.50;51.90;;;26.41;70.54;95816.72;5003209;28;19916;-48
2023/08/23 06:40:10;;;;;;;;;;;31.70;51.60;;;26.73;69.33;95825.53;4999288;28;19955;-48
2023/08/23 06:42:36;;;;;;;;;;;31.90;51.40;;;27.06;68.90;95826.91;5012591;28;20003;-49
2023/08/23 06:45:02;;;;;;;;;;;32.20;51.10;;;27.39;65.40;95827.09;5012641;28;20012;-51
2023/08/23 06:47:28;;;;;;;;;;;32.50;50.80;;;27.59;64.39;95825.03;5012280;28;20383;-49
2023/08/23 06:49:54;;;;;;;;;;;32.70;50.40;;;27.82;62.70;95830.47;5016740;28;19956;-51
2023/08/23 06:52:19;;;;;;;;;;;33.00;50.10;;;28.12;61.41;95825.00;5002170;28;19909;-50
2023/08/23 06:54:45;;;;;;;;;;;33.30;49.80;;;28.39;59.79;95819.44;5005226;28;20025;-52
2023/08/23 06:57:11;;;;;;;;;;;33.60;49.40;;;28.61;58.64;95825.97;5001978;28;19909;-50
2023/08/23 06:59:37;;;;;;;;;;;33.70;49.50;;;28.78;58.17;95828.13;5005528;28;19916;-51
2023/08/23 07:02:03;;;;;;;;;;;33.90;48.60;;;28.93;55.73;95823.56;5002244;28;19909;-54
2023/08/23 07:04:29;;;;;;;;;;;34.10;48.30;;;28.92;55.04;95832.16;4998820;28;20011;-51
2023/08/23 07:06:55;;;;;;;;;;;34.30;47.90;;;29.07;55.56;95831.16;5008463;28;20339;-51
2023/08/23 07:09:20;;;;;;;;;;;34.40;47.50;;;29.34;54.49;95834.53;4998870;28;20329;-56
2023/08/23 07:11:46;;;;;;;;;;;34.50;47.10;;;29.38;54.04;95829.84;5002459;28;19909;-51
2023/08/23 07:14:12;;;;;;;;;;;34.70;47.00;;;29.60;54.50;95832.75;5005943;28;20371;-54
2023/08/23 07:16:38;;;;;;;;;;;34.80;46.70;;;29.83;53.19;95825.06;4994877;28;20282;-50
2023/08/23 07:19:04;;;;;;;;;;;35.00;46.50;;;30.09;52.63;95832.28;4997745;28;20013;-50
2023/08/23 07:21:30;;;;;;;;;;;35.20;46.20;;;30.40;51.31;95830.88;5012196;28;19932;-54
2023/08/23 07:23:56;;;;;;;;;;;35.50;46.00;;;30.53;50.80;95838.78;5012346;28;20355;-51
2023/08/23 07:26:23;;;;;;;;;;;35.70;45.60;;;30.66;50.40;95827.03;5015041;28;20303;-56
2023/08/23 07:28:48;;;;;;;;;;;35.80;45.20;;;30.93;51.28;95828.66;4998870;28;19913;-49
2023/08/23 07:31:14;;;;;;;;;;;36.10;45.10;;;31.17;49.56;95830.66;5004937;28;19916;-51
2023/08/23 07:33:40;;;;;;;;;;;36.30;44.80;;;31.36;49.44;95829.50;5016322;28;19928;-56
2023/08/23 07:36:06;;;;;;;;;;;36.60;44.50;;;31.72;48.37;95832.25;5015682;28;19967;-51
2023/08/23 07:38:32;;;;;;;;;;;36.80;44.20;;;31.88;47.79;95832.59;5010993;28;20296;-46
2023/08/23 07:41:03;;;;;;;;;;;37.10;43.90;;;32.06;47.62;95834.53;5006588;28;19909;-49
2023/08/23 07:43:30;;;;;;;;;;;37.30;43.60;;;32.41;47.63;95828.13;4997940;28;20281;-47
2023/08/23 07:45:58;;;;;;;;;;;37.60;43.30;;;32.72;46.33;95829.97;5000192;28;19916;-53
2023/08/23 07:48:26;;;;;;;;;;;37.90;43.10;;;32.90;46.10;95829.81;5008645;28;19937;-49
2023/08/23 07:51:01;;;;;;;;;;;38.10;42.70;;;32.82;45.96;95835.81;5000192;28;19909;-52
2023/08/23 07:53:29;;;;;;;;;;;38.30;42.30;;;32.90;45.24;95832.59;5002263;28;19917;-49
2023/08/23 07:55:55;;;;;;;;;;;38.50;42.00;;;32.95;45.34;95836.91;5010775;28;19909;-54
2023/08/23 07:58:21;;;;;;;;;;;38.70;41.70;;;33.14;44.76;95835.63;5002316;28;20391;-49
2023/08/23 08:00:47;;;;;;;;;;;38.80;41.40;;;33.20;45.82;95830.47;5014168;28;19909;-56
2023/08/23 08:03:13;;;;;;;;;;;38.90;41.10;;;33.14;44.18;95841.13;5027697;28;19915;-54
2023/08/23 08:05:38;;;;;;;;;;;39.10;40.80;;;33.21;44.13;95838.31;5002041;28;20394;-51
2023/08/23 08:08:06;;;;;;;;;;;39.20;40.60;;;33.31;44.29;95831.94;5013936;28;19916;-52
2023/08/23 08:10:32;;;;;;;;;;;39.40;40.40;;;33.35;43.74;95832.69;5002037;28;19916;-49
2023/08/23 08:12:58;;;;;;;;;;;39.50;40.10;;;33.61;43.55;95833.28;5011017;28;19916;-54
2023/08/23 08:15:25;;;;;;;;;;;39.70;39.80;;;33.65;43.06;95833.25;5021279;28;19909;-52
2023/08/23 08:17:52;;;;;;;;;;;39.80;39.50;;;33.69;43.35;95831.22;5015337;28;19917;-49
2023/08/23 08:20:20;;;;;;;;;;;39.90;39.30;;;33.70;42.92;95832.81;5024849;28;20316;-51
2023/08/23 08:22:46;;;;;;;;;;;40.10;39.00;;;33.89;43.17;95831.44;5015776;28;19954;-50
2023/08/23 08:25:12;;;;;;;;;;;40.00;38.70;;;34.21;42.37;95837.44;5013302;28;20260;-53
2023/08/23 08:27:38;;;;;;;;;;;40.20;38.70;;;34.12;42.20;95839.91;5002627;28;19940;-49
2023/08/23 08:30:05;;;;;;;;;;;40.30;38.50;;;33.99;42.45;95838.84;5014708;28;19948;-53
2023/08/23 08:32:31;;;;;;;;;;;40.40;38.20;;;34.34;41.82;95834.13;5006495;28;19999;-52
2023/08/23 08:34:56;;;;;;;;;;;40.50;38.00;;;34.60;41.69;95840.94;5007888;28;20003;-49
2023/08/23 08:37:25;;;;;;;;;;;40.60;37.90;;;34.95;41.19;95831.38;5003037;28;19916;-51
2023/08/23 08:39:50;;;;;;;;;;;40.70;37.80;;;35.17;39.97;95829.88;5011408;28;20338;-54
2023/08/23 08:42:17;;;;;;;;;;;40.90;38.20;;;35.25;41.02;95826.97;5015110;28;19909;-51
2023/08/23 08:44:45;;;;;;;;;;;41.00;37.30;;;35.54;41.19;95824.53;5011350;28;19960;-52
2023/08/23 08:47:10;;;;;;;;;;;41.20;37.30;;;35.78;39.31;95826.09;5013722;28;19962;-49
2023/08/23 08:49:36;;;;;;;;;;;41.40;37.10;;;36.08;39.91;95819.63;5013950;28;19909;-54
2023/08/23 08:52:07;;;;;;;;;;;41.50;36.80;;;36.27;37.98;95822.84;5013779;28;19909;-53
2023/08/23 08:54:34;;;;;;;;;;;41.80;36.60;;;35.97;38.15;95826.56;5014336;28;19952;-51
2023/08/23 08:57:01;;;;;;;;;;;41.90;36.30;;;36.10;38.85;95825.53;5013386;28;19916;-53
2023/08/23 08:59:28;;;;;;;;;;;42.00;36.00;;;36.32;38.63;95828.66;5013955;28;19967;-53
2023/08/23 09:01:58;;;;;;;;;;;42.20;36.20;;;36.36;37.52;95831.38;5014967;28;19936;-52
2023/08/23 09:04:24;;;;;;;;;;;42.30;35.60;;;36.47;37.53;95826.38;4997424;28;19960;-51
2023/08/23 09:06:51;;;;;;;;;;;42.40;35.20;;;36.44;37.55;95824.44;5003624;28;20321;-52
2023/08/23 09:09:18;;;;;;;;;;;42.50;35.00;;;36.56;38.03;95828.59;4997523;28;19923;-47
2023/08/23 09:11:44;;;;;;;;;;;42.60;35.00;;;36.59;37.33;95828.50;5009458;28;19909;-52
2023/08/23 09:14:18;;;;;;;;;;;42.70;34.80;;;36.51;36.89;95835.44;5007708;28;19940;-50
2023/08/23 09:16:46;;;;;;;;;;;42.70;34.60;;;36.11;37.15;95829.09;5014135;28;20023;-49
2023/08/23 09:19:13;;;;;;;;;;;42.80;34.30;;;35.88;38.09;95835.41;4999303;28;19967;-52
2023/08/23 09:21:51;;;;;;;;;;;42.70;33.80;;;35.94;38.13;95835.72;5002677;28;19913;-50
2023/08/23 09:24:18;;;;;;;;;;;42.70;33.80;;;36.24;38.09;95837.56;4996631;28;19958;-53
2023/08/23 09:26:47;;;;;;;;;;;42.60;33.80;;;36.44;37.21;95832.75;4995604;28;20371;-53
2023/08/23 09:29:13;;;;;;;;;;;42.70;33.70;;;36.59;36.92;95833.28;5013930;28;19924;-52
2023/08/23 09:31:41;;;;;;;;;;;42.70;33.70;;;36.72;36.66;95831.41;5012684;28;20511;-48
2023/08/23 09:34:17;;;;;;;;;;;42.90;33.70;;;36.65;37.88;95833.56;5013313;28;19917;-48
2023/08/23 09:36:43;;;;;;;;;;;43.00;33.50;;;36.96;36.00;95831.28;4979836;28;20015;-51
2023/08/23 09:39:11;;;;;;;;;;;43.10;33.30;;;37.16;35.96;95837.56;5012749;28;19913;-52
2023/08/23 09:41:42;;;;;;;;;;;43.20;33.20;;;37.14;36.12;95831.69;5000673;28;19971;-53
2023/08/23 09:44:09;;;;;;;;;;;43.40;33.00;;;37.39;36.06;95836.66;5016007;28;19932;-54
2023/08/23 09:46:37;;;;;;;;;;;43.50;32.90;;;37.49;35.73;95841.19;5009900;28;20423;-50
2023/08/23 09:49:11;;;;;;;;;;;43.70;32.70;;;37.75;35.10;95841.31;5008566;28;20382;-51
2023/08/23 09:51:38;;;;;;;;;;;43.80;32.60;;;37.58;34.91;95839.81;5014176;28;19920;-50
2023/08/23 09:54:27;;;;;;;;;;;44.00;32.40;;;37.73;34.47;95835.41;5012760;28;19960;-53
2023/08/23 09:56:53;;;;;;;;;;;44.20;32.20;;;38.24;34.41;95824.56;5011420;28;19909;-50
2023/08/23 09:59:20;;;;;;;;;;;44.40;32.20;;;38.81;33.89;95830.47;5012937;28;19913;-54
2023/08/23 10:01:47;;;;;;;;;;;44.60;32.00;;;39.10;32.78;95828.38;5010909;28;19909;-55
2023/08/23 10:04:15;;;;;;;;;;;44.80;31.60;;;39.09;33.04;95818.47;4999601;28;20276;-49
2023/08/23 10:06:44;;;;;;;;;;;45.00;31.60;;;39.06;33.15;95816.59;5008524;28;20452;-52
2023/08/23 10:09:12;;;;;;;;;;;45.10;31.20;;;39.33;32.68;95820.91;4994677;28;19952;-52
2023/08/23 10:11:38;;;;;;;;;;;45.30;31.20;;;38.93;33.35;95807.47;5008585;28;20289;-52
2023/08/23 10:14:07;;;;;;;;;;;45.40;30.90;;;38.88;32.90;95805.22;4997369;28;19916;-51
2023/08/23 10:16:35;;;;;;;;;;;45.50;30.60;;;38.15;33.87;95805.72;4994879;28;20436;-48
2023/08/23 10:19:02;;;;;;;;;;;45.50;30.50;;;38.33;33.77;95804.41;4993405;28;20288;-48
2023/08/23 10:21:28;;;;;;;;;;;45.50;30.40;;;38.53;33.34;95804.28;5011688;28;19917;-49
2023/08/23 10:23:54;;;;;;;;;;;45.70;30.40;;;38.73;33.64;95792.94;5006765;28;20279;-50
2023/08/23 10:26:22;;;;;;;;;;;45.70;30.30;;;39.01;32.31;95794.84;5013630;28;19913;-53
2023/08/23 10:28:53;;;;;;;;;;;45.90;30.20;;;39.00;32.08;95792.53;4999069;28;19915;-52
2023/08/23 10:31:26;;;;;;;;;;;46.00;30.00;;;39.27;32.43;95786.47;5012257;28;20578;-50
2023/08/23 10:34:00;;;;;;;;;;;46.10;30.00;;;39.47;31.42;95789.03;5006640;28;19917;-51
2023/08/23 10:36:29;;;;;;;;;;;46.10;29.80;;;39.54;31.57;95786.78;4999274;23;20016;-47
2023/08/23 10:38:59;;;;;;;;;;;46.20;29.80;;;39.65;31.20;95782.88;4988935;28;19980;-50
2023/08/23 10:41:25;;;;;;;;;;;46.30;29.60;;;39.72;31.14;95789.00;4991959;28;19909;-48
2023/08/23 10:43:52;;;;;;;;;;;46.40;30.00;;;39.86;31.02;95789.72;4988365;28;19914;-48
2023/08/23 10:46:21;;;;;;;;;;;46.50;29.50;;;40.13;30.89;95789.94;4992869;28;20326;-48
2023/08/23 10:48:48;;;;;;;;;;;46.70;29.40;;;40.04;30.99;95787.06;4972285;28;19909;-52
2023/08/23 10:51:15;;;;;;;;;;;46.90;29.30;;;39.80;30.47;95789.50;4980182;28;19937;-49
2023/08/23 10:53:42;;;;;;;;;;;47.00;29.00;;;40.13;30.34;95797.53;4973343;28;19913;-47
2023/08/23 10:56:10;;;;;;;;;;;47.00;28.90;;;40.10;30.09;95795.63;4984758;28;20407;-48
2023/08/23 10:58:36;;;;;;;;;;;47.20;28.90;;;40.07;30.30;95788.19;4980216;28;20426;-48
2023/08/23 11:01:03;;;;;;;;;;;47.20;28.70;;;40.47;30.15;95791.09;4991253;28;19913;-49
2023/08/23 11:03:30;;;;;;;;;;;47.30;28.70;;;40.36;29.69;95787.94;4985551;28;20335;-46
2023/08/23 11:05:56;;;;;;;;;;;47.40;28.60;;;40.30;29.85;95787.72;4983508;28;19910;-46
2023/08/23 11:08:23;;;;;;;;;;;47.60;28.50;;;40.46;29.53;95781.97;4986740;28;19952;-48
2023/08/23 11:10:49;;;;;;;;;;;47.70;28.40;;;40.69;29.17;95786.28;4991404;28;20339;-50
2023/08/23 11:13:15;;;;;;;;;;;47.80;28.30;;;40.74;29.20;95779.31;4995616;28;19917;-52
2023/08/23 11:15:44;;;;;;;;;;;48.00;28.20;;;40.53;29.23;95778.13;4983159;28;19910;-46